createdAt,value
2023-03-05T00:00:24.070Z,1010.38
2023-03-05T00:01:44.976Z,1010.43
2023-03-05T00:02:23.996Z,1010.41
2023-03-05T00:03:23.886Z,1010.42
2023-03-05T00:04:23.793Z,1010.38
2023-03-05T00:05:23.720Z,1010.39
2023-03-05T00:06:23.663Z,1010.46
2023-03-05T00:07:44.587Z,1010.42
2023-03-05T00:08:23.516Z,1010.42
2023-03-05T00:09:23.437Z,1010.34
2023-03-05T00:10:23.364Z,1010.35
2023-03-05T00:11:23.295Z,1010.29
2023-03-05T00:12:23.255Z,1010.29
2023-03-05T00:13:44.169Z,1010.25
2023-03-05T00:14:23.088Z,1010.29
2023-03-05T00:15:23.017Z,1010.24
2023-03-05T00:16:23.037Z,1010.23
2023-03-05T00:17:22.893Z,1010.21
2023-03-05T00:18:22.818Z,1010.20
2023-03-05T00:19:43.723Z,1010.17
2023-03-05T00:20:22.670Z,1010.14
2023-03-05T00:21:22.609Z,1010.12
2023-03-05T00:22:22.524Z,1010.15
2023-03-05T00:23:22.456Z,1010.12
2023-03-05T00:24:22.394Z,1010.08
2023-03-05T00:25:43.316Z,1010.06
2023-03-05T00:26:22.250Z,1010.07
2023-03-05T00:27:22.180Z,1010.06
2023-03-05T00:28:22.112Z,1010.03
2023-03-05T00:29:22.044Z,1009.98
2023-03-05T00:30:21.972Z,1009.97
2023-03-05T00:31:42.896Z,1009.96
2023-03-05T00:32:21.868Z,1009.96
2023-03-05T00:33:21.764Z,1009.95
2023-03-05T00:34:21.695Z,1009.91
2023-03-05T00:35:21.656Z,1009.94
2023-03-05T00:36:21.557Z,1009.92
2023-03-05T00:37:42.456Z,1009.95
2023-03-05T00:38:21.415Z,1009.88
2023-03-05T00:39:21.360Z,1009.88
2023-03-05T00:40:21.311Z,1009.88
2023-03-05T00:41:21.212Z,1009.89
2023-03-05T00:42:21.135Z,1009.88
2023-03-05T00:43:42.053Z,1009.89
2023-03-05T00:44:21.024Z,1009.84
2023-03-05T00:45:20.927Z,1009.81
2023-03-05T00:46:20.883Z,1009.82
2023-03-05T00:47:20.781Z,1009.83
2023-03-05T00:48:20.724Z,1009.82
2023-03-05T00:49:41.625Z,1009.77
2023-03-05T00:50:20.575Z,1009.77
2023-03-05T00:51:20.505Z,1009.77
2023-03-05T00:52:20.437Z,1009.74
2023-03-05T00:53:20.373Z,1009.75
2023-03-05T00:54:20.295Z,1009.74
2023-03-05T00:55:41.210Z,1009.76
2023-03-05T00:56:20.154Z,1009.71
2023-03-05T00:57:20.075Z,1009.67
2023-03-05T00:58:20.033Z,1009.69
2023-03-05T00:59:19.958Z,1009.62
2023-03-05T01:00:19.888Z,1009.62
2023-03-05T01:01:40.840Z,1009.59
2023-03-05T01:02:19.732Z,1009.61
2023-03-05T01:03:19.654Z,1009.55
2023-03-05T01:04:19.589Z,1009.50
2023-03-05T01:05:19.523Z,1009.52
2023-03-05T01:06:19.464Z,1009.50
2023-03-05T01:07:40.365Z,1009.50
2023-03-05T01:08:19.299Z,1009.45
2023-03-05T01:09:19.220Z,1009.51
2023-03-05T01:10:19.155Z,1009.48
2023-03-05T01:11:19.084Z,1009.49
2023-03-05T01:12:19.013Z,1009.47
2023-03-05T01:13:39.927Z,1009.44
2023-03-05T01:14:18.877Z,1009.43
2023-03-05T01:15:18.808Z,1009.47
2023-03-05T01:16:18.842Z,1009.45
2023-03-05T01:17:18.659Z,1009.46
2023-03-05T01:18:18.596Z,1009.44
2023-03-05T01:19:39.499Z,1009.43
2023-03-05T01:20:18.461Z,1009.43
2023-03-05T01:21:18.399Z,1009.45
2023-03-05T01:22:18.309Z,1009.39
2023-03-05T01:23:18.236Z,1009.40
2023-03-05T01:24:18.169Z,1009.43
2023-03-05T01:25:39.080Z,1009.38
2023-03-05T01:26:18.019Z,1009.36
2023-03-05T01:27:17.960Z,1009.36
2023-03-05T01:28:17.884Z,1009.31
2023-03-05T01:29:17.827Z,1009.32
2023-03-05T01:30:17.741Z,1009.37
2023-03-05T01:31:38.693Z,1009.23
2023-03-05T01:32:17.649Z,1009.26
2023-03-05T01:33:17.545Z,1009.32
2023-03-05T01:34:17.471Z,1009.20
2023-03-05T01:35:17.436Z,1009.22
2023-03-05T01:36:17.334Z,1009.22
2023-03-05T01:37:38.242Z,1009.25
2023-03-05T01:38:17.245Z,1009.28
2023-03-05T01:39:17.125Z,1009.26
2023-03-05T01:40:17.043Z,1009.23
2023-03-05T01:41:16.982Z,1009.22
2023-03-05T01:42:16.899Z,1009.21
2023-03-05T01:43:37.823Z,1009.25
2023-03-05T01:44:16.765Z,1009.19
2023-03-05T01:45:16.715Z,1009.24
2023-03-05T01:46:16.620Z,1009.25
2023-03-05T01:47:16.594Z,1009.21
2023-03-05T01:48:16.486Z,1009.20
2023-03-05T01:49:37.402Z,1009.22
2023-03-05T01:50:16.338Z,1009.21
2023-03-05T01:51:16.281Z,1009.17
2023-03-05T01:52:16.204Z,1009.19
2023-03-05T01:53:16.131Z,1009.17
2023-03-05T01:54:16.060Z,1009.14
2023-03-05T01:55:36.997Z,1009.12
2023-03-05T01:56:15.933Z,1009.20
2023-03-05T01:57:15.856Z,1009.15
2023-03-05T01:58:15.789Z,1009.16
2023-03-05T01:59:15.743Z,1009.11
2023-03-05T02:00:15.664Z,1009.12
2023-03-05T02:01:36.632Z,1009.13
2023-03-05T02:02:15.502Z,1009.13
2023-03-05T02:03:15.427Z,1009.10
2023-03-05T02:04:15.355Z,1009.04
2023-03-05T02:05:15.297Z,1009.13
2023-03-05T02:06:15.227Z,1009.08
2023-03-05T02:07:36.137Z,1009.09
2023-03-05T02:08:15.079Z,1009.06
2023-03-05T02:09:15.022Z,1009.02
2023-03-05T02:10:14.936Z,1009.09
2023-03-05T02:11:14.874Z,1009.08
2023-03-05T02:12:14.807Z,1009.06
2023-03-05T02:13:35.746Z,1009.02
2023-03-05T02:14:14.683Z,1009.04
2023-03-05T02:15:14.593Z,1009.00
2023-03-05T02:16:14.546Z,1008.90
2023-03-05T02:17:14.448Z,1009.02
2023-03-05T02:18:14.375Z,1008.94
2023-03-05T02:19:35.295Z,1008.99
2023-03-05T02:20:14.232Z,1009.01
2023-03-05T02:21:14.169Z,1009.00
2023-03-05T02:22:14.105Z,1008.95
2023-03-05T02:23:14.046Z,1008.99
2023-03-05T02:24:13.968Z,1008.97
2023-03-05T02:25:34.872Z,1008.93
2023-03-05T02:26:13.821Z,1008.96
2023-03-05T02:27:13.744Z,1008.91
2023-03-05T02:28:13.667Z,1008.92
2023-03-05T02:29:13.613Z,1008.90
2023-03-05T02:30:13.539Z,1008.85
2023-03-05T02:31:34.481Z,1008.89
2023-03-05T02:32:13.491Z,1008.84
2023-03-05T02:33:13.319Z,1008.86
2023-03-05T02:34:13.261Z,1008.87
2023-03-05T02:35:13.181Z,1008.83
2023-03-05T02:36:13.108Z,1008.82
2023-03-05T02:37:34.022Z,1008.82
2023-03-05T02:38:12.975Z,1008.74
2023-03-05T02:39:12.901Z,1008.75
2023-03-05T02:40:12.826Z,1008.72
2023-03-05T02:41:12.769Z,1008.66
2023-03-05T02:42:12.678Z,1008.74
2023-03-05T02:43:33.652Z,1008.70
2023-03-05T02:44:12.549Z,1008.69
2023-03-05T02:45:12.484Z,1008.51
2023-03-05T02:46:12.492Z,1008.58
2023-03-05T02:47:12.349Z,1008.58
2023-03-05T02:48:12.317Z,1008.57
2023-03-05T02:49:33.175Z,1008.69
2023-03-05T02:50:12.120Z,1008.61
2023-03-05T02:51:12.051Z,1008.62
2023-03-05T02:52:11.992Z,1008.58
2023-03-05T02:53:11.918Z,1008.57
2023-03-05T02:54:11.840Z,1008.53
2023-03-05T02:55:32.759Z,1008.54
2023-03-05T02:56:11.710Z,1008.53
2023-03-05T02:57:11.637Z,1008.55
2023-03-05T02:58:11.576Z,1008.55
2023-03-05T02:59:11.488Z,1008.55
2023-03-05T03:00:11.486Z,1008.52
2023-03-05T03:01:32.361Z,1008.52
2023-03-05T03:02:11.273Z,1008.45
2023-03-05T03:03:11.266Z,1008.50
2023-03-05T03:04:11.142Z,1008.47
2023-03-05T03:05:11.126Z,1008.46
2023-03-05T03:06:10.995Z,1008.46
2023-03-05T03:07:31.917Z,1008.47
2023-03-05T03:08:10.862Z,1008.47
2023-03-05T03:09:10.784Z,1008.44
2023-03-05T03:10:10.720Z,1008.51
2023-03-05T03:11:10.652Z,1008.43
2023-03-05T03:12:10.584Z,1008.46
2023-03-05T03:13:31.500Z,1008.45
2023-03-05T03:14:10.541Z,1008.47
2023-03-05T03:15:10.366Z,1008.42
2023-03-05T03:16:10.300Z,1008.46
2023-03-05T03:17:10.231Z,1008.45
2023-03-05T03:18:10.178Z,1008.40
2023-03-05T03:19:31.064Z,1008.43
2023-03-05T03:20:10.018Z,1008.38
2023-03-05T03:21:09.945Z,1008.41
2023-03-05T03:22:09.870Z,1008.39
2023-03-05T03:23:09.808Z,1008.36
2023-03-05T03:24:09.727Z,1008.34
2023-03-05T03:25:30.651Z,1008.30
2023-03-05T03:26:09.622Z,1008.27
2023-03-05T03:27:09.559Z,1008.32
2023-03-05T03:28:09.472Z,1008.33
2023-03-05T03:29:09.386Z,1008.28
2023-03-05T03:30:09.315Z,1008.25
2023-03-05T03:31:30.222Z,1008.29
2023-03-05T03:32:09.204Z,1008.21
2023-03-05T03:33:09.112Z,1008.24
2023-03-05T03:34:09.024Z,1008.26
2023-03-05T03:35:08.962Z,1008.29
2023-03-05T03:36:08.889Z,1008.26
2023-03-05T03:37:29.803Z,1008.21
2023-03-05T03:38:08.746Z,1008.28
2023-03-05T03:39:08.677Z,1008.21
2023-03-05T03:40:08.608Z,1008.19
2023-03-05T03:41:08.547Z,1008.17
2023-03-05T03:42:08.467Z,1008.16
2023-03-05T03:43:29.377Z,1008.20
2023-03-05T03:44:08.326Z,1008.14
2023-03-05T03:45:08.257Z,1008.16
2023-03-05T03:46:08.223Z,1008.17
2023-03-05T03:47:08.114Z,1008.15
2023-03-05T03:48:08.063Z,1008.24
2023-03-05T03:49:28.980Z,1008.13
2023-03-05T03:50:07.917Z,1008.07
2023-03-05T03:51:07.845Z,1008.17
2023-03-05T03:52:07.761Z,1008.07
2023-03-05T03:53:07.692Z,1008.03
2023-03-05T03:54:07.616Z,1008.12
2023-03-05T03:55:28.541Z,1008.08
2023-03-05T03:56:07.485Z,1008.14
2023-03-05T03:57:07.437Z,1008.00
2023-03-05T03:58:07.350Z,1008.03
2023-03-05T03:59:07.264Z,1008.05
2023-03-05T04:00:07.209Z,1008.04
2023-03-05T04:01:28.108Z,1008.06
2023-03-05T04:02:07.094Z,1008.09
2023-03-05T04:03:07.029Z,1008.04
2023-03-05T04:04:06.994Z,1007.96
2023-03-05T04:05:06.856Z,1008.03
2023-03-05T04:06:06.789Z,1008.01
2023-03-05T04:07:27.687Z,1007.97
2023-03-05T04:08:06.640Z,1007.94
2023-03-05T04:09:06.574Z,1007.95
2023-03-05T04:10:06.494Z,1007.94
2023-03-05T04:11:06.428Z,1007.89
2023-03-05T04:12:06.360Z,1007.94
2023-03-05T04:13:27.266Z,1007.93
2023-03-05T04:14:06.219Z,1007.92
2023-03-05T04:15:06.164Z,1007.90
2023-03-05T04:16:06.133Z,1007.86
2023-03-05T04:17:05.998Z,1007.88
2023-03-05T04:18:05.931Z,1007.90
2023-03-05T04:19:26.843Z,1007.84
2023-03-05T04:20:05.797Z,1007.85
2023-03-05T04:21:05.717Z,1007.86
2023-03-05T04:22:05.645Z,1007.88
2023-03-05T04:23:05.572Z,1007.85
2023-03-05T04:24:05.533Z,1007.87
2023-03-05T04:25:26.423Z,1007.68
2023-03-05T04:26:05.373Z,1007.78
2023-03-05T04:27:05.294Z,1007.76
2023-03-05T04:28:05.224Z,1007.78
2023-03-05T04:29:05.158Z,1007.80
2023-03-05T04:30:05.087Z,1007.78
2023-03-05T04:31:26.068Z,1007.81
2023-03-05T04:32:04.970Z,1007.76
2023-03-05T04:33:04.872Z,1007.79
2023-03-05T04:34:04.798Z,1007.72
2023-03-05T04:35:04.728Z,1007.75
2023-03-05T04:36:04.649Z,1007.70
2023-03-05T04:37:25.572Z,1007.74
2023-03-05T04:38:04.526Z,1007.71
2023-03-05T04:39:04.459Z,1007.68
2023-03-05T04:40:04.376Z,1007.76
2023-03-05T04:41:04.304Z,1007.71
2023-03-05T04:42:04.230Z,1007.64
2023-03-05T04:43:25.152Z,1007.70
2023-03-05T04:44:04.082Z,1007.65
2023-03-05T04:45:04.023Z,1007.64
2023-03-05T04:46:03.975Z,1007.64
2023-03-05T04:47:03.898Z,1007.64
2023-03-05T04:48:03.797Z,1007.59
2023-03-05T04:49:24.712Z,1007.65
2023-03-05T04:50:03.653Z,1007.59
2023-03-05T04:51:03.594Z,1007.51
2023-03-05T04:52:03.517Z,1007.55
2023-03-05T04:53:03.452Z,1007.59
2023-03-05T04:54:03.377Z,1007.55
2023-03-05T04:55:24.288Z,1007.56
2023-03-05T04:56:03.234Z,1007.54
2023-03-05T04:57:03.167Z,1007.59
2023-03-05T04:58:03.097Z,1007.52
2023-03-05T04:59:03.130Z,1007.54
2023-03-05T05:00:02.965Z,1007.56
2023-03-05T05:01:23.937Z,1007.56
2023-03-05T05:02:02.857Z,1007.52
2023-03-05T05:03:02.799Z,1007.55
2023-03-05T05:04:02.702Z,1007.47
2023-03-05T05:05:02.597Z,1007.61
2023-03-05T05:06:02.533Z,1007.51
2023-03-05T05:07:23.463Z,1007.55
2023-03-05T05:08:02.388Z,1007.51
2023-03-05T05:09:02.316Z,1007.53
2023-03-05T05:10:02.248Z,1007.59
2023-03-05T05:11:02.185Z,1007.53
2023-03-05T05:12:02.100Z,1007.54
2023-03-05T05:13:23.013Z,1007.52
2023-03-05T05:14:01.974Z,1007.48
2023-03-05T05:15:01.888Z,1007.50
2023-03-05T05:16:01.975Z,1007.52
2023-03-05T05:17:01.752Z,1007.50
2023-03-05T05:18:01.683Z,1007.50
2023-03-05T05:19:22.623Z,1007.50
2023-03-05T05:20:01.553Z,1007.46
2023-03-05T05:21:01.479Z,1007.48
2023-03-05T05:22:01.403Z,1007.51
2023-03-05T05:23:01.319Z,1007.50
2023-03-05T05:24:01.272Z,1007.52
2023-03-05T05:25:22.183Z,1007.50
2023-03-05T05:26:01.119Z,1007.51
2023-03-05T05:27:01.041Z,1007.46
2023-03-05T05:28:00.986Z,1007.47
2023-03-05T05:29:00.891Z,1007.53
2023-03-05T05:30:00.844Z,1007.46
2023-03-05T05:31:21.809Z,1007.51
2023-03-05T05:32:00.716Z,1007.49
2023-03-05T05:33:00.616Z,1007.47
2023-03-05T05:34:00.541Z,1007.44
2023-03-05T05:35:00.484Z,1007.44
2023-03-05T05:36:00.433Z,1007.47
2023-03-05T05:37:21.321Z,1007.50
2023-03-05T05:38:00.252Z,1007.49
2023-03-05T05:39:00.187Z,1007.42
2023-03-05T05:40:00.127Z,1007.50
2023-03-05T05:41:00.048Z,1007.44
2023-03-05T05:41:59.973Z,1007.50
2023-03-05T05:43:20.909Z,1007.49
2023-03-05T05:43:59.839Z,1007.50
2023-03-05T05:44:59.784Z,1007.50
2023-03-05T05:45:59.765Z,1007.52
2023-03-05T05:46:59.624Z,1007.54
2023-03-05T05:47:59.559Z,1007.59
2023-03-05T05:49:20.460Z,1007.57
2023-03-05T05:49:59.416Z,1007.61
2023-03-05T05:50:59.354Z,1007.59
2023-03-05T05:51:59.285Z,1007.63
2023-03-05T05:52:59.205Z,1007.62
2023-03-05T05:53:59.125Z,1007.62
2023-03-05T05:55:20.036Z,1007.58
2023-03-05T05:55:58.988Z,1007.65
2023-03-05T05:56:58.909Z,1007.63
2023-03-05T05:57:58.841Z,1007.57
2023-03-05T05:58:58.777Z,1007.52
2023-03-05T05:59:58.712Z,1007.58
2023-03-05T06:01:19.614Z,1007.60
2023-03-05T06:01:58.631Z,1007.62
2023-03-05T06:02:58.516Z,1007.60
2023-03-05T06:03:58.444Z,1007.56
2023-03-05T06:04:58.817Z,1007.56
2023-03-05T06:05:58.269Z,1007.54
2023-03-05T06:07:19.186Z,1007.52
2023-03-05T06:07:58.145Z,1007.53
2023-03-05T06:08:58.057Z,1007.48
2023-03-05T06:09:57.997Z,1007.50
2023-03-05T06:10:57.921Z,1007.51
2023-03-05T06:11:57.862Z,1007.49
2023-03-05T06:13:18.757Z,1007.54
2023-03-05T06:13:57.718Z,1007.49
2023-03-05T06:14:57.626Z,1007.43
2023-03-05T06:15:57.557Z,1007.45
2023-03-05T06:16:57.500Z,1007.48
2023-03-05T06:17:57.422Z,1007.46
2023-03-05T06:19:18.345Z,1007.50
2023-03-05T06:19:57.280Z,1007.47
2023-03-05T06:20:57.203Z,1007.50
2023-03-05T06:21:57.136Z,1007.46
2023-03-05T06:22:57.065Z,1007.45
2023-03-05T06:23:56.997Z,1007.48
2023-03-05T06:25:17.905Z,1007.49
2023-03-05T06:25:56.852Z,1007.48
2023-03-05T06:26:56.781Z,1007.46
2023-03-05T06:27:56.719Z,1007.48
2023-03-05T06:28:56.647Z,1007.49
2023-03-05T06:29:56.634Z,1007.51
2023-03-05T06:31:17.484Z,1007.52
2023-03-05T06:31:56.430Z,1007.52
2023-03-05T06:32:56.354Z,1007.53
2023-03-05T06:33:56.288Z,1007.54
2023-03-05T06:34:56.210Z,1007.54
2023-03-05T06:35:56.180Z,1007.52
2023-03-05T06:37:17.056Z,1007.56
2023-03-05T06:37:56.002Z,1007.57
2023-03-05T06:38:55.932Z,1007.51
2023-03-05T06:39:55.860Z,1007.59
2023-03-05T06:40:55.793Z,1007.54
2023-03-05T06:41:55.723Z,1007.46
2023-03-05T06:43:16.627Z,1007.54
2023-03-05T06:43:55.600Z,1007.53
2023-03-05T06:44:55.509Z,1007.55
2023-03-05T06:45:55.497Z,1007.47
2023-03-05T06:46:55.434Z,1007.53
2023-03-05T06:47:55.340Z,1007.43
2023-03-05T06:49:16.214Z,1007.51
2023-03-05T06:49:55.161Z,1007.42
2023-03-05T06:50:55.096Z,1007.47
2023-03-05T06:51:55.016Z,1007.47
2023-03-05T06:52:54.954Z,1007.44
2023-03-05T06:53:54.892Z,1007.47
2023-03-05T06:55:15.800Z,1007.50
2023-03-05T06:55:54.740Z,1007.48
2023-03-05T06:56:54.664Z,1007.48
2023-03-05T06:57:54.608Z,1007.53
2023-03-05T06:58:54.528Z,1007.51
2023-03-05T06:59:54.464Z,1007.51
2023-03-05T07:01:15.436Z,1007.52
2023-03-05T07:01:54.329Z,1007.46
2023-03-05T07:02:54.278Z,1007.49
2023-03-05T07:03:54.203Z,1007.46
2023-03-05T07:04:54.109Z,1007.50
2023-03-05T07:05:54.044Z,1007.48
2023-03-05T07:07:14.974Z,1007.53
2023-03-05T07:07:53.901Z,1007.47
2023-03-05T07:08:53.830Z,1007.52
2023-03-05T07:09:53.770Z,1007.58
2023-03-05T07:10:53.699Z,1007.55
2023-03-05T07:11:53.658Z,1007.57
2023-03-05T07:13:14.553Z,1007.56
2023-03-05T07:13:53.489Z,1007.56
2023-03-05T07:14:53.427Z,1007.59
2023-03-05T07:15:53.454Z,1007.57
2023-03-05T07:16:53.275Z,1007.57
2023-03-05T07:17:53.207Z,1007.55
2023-03-05T07:19:14.120Z,1007.55
2023-03-05T07:19:53.066Z,1007.62
2023-03-05T07:20:53.015Z,1007.56
2023-03-05T07:21:52.935Z,1007.62
2023-03-05T07:22:52.865Z,1007.60
2023-03-05T07:23:52.797Z,1007.57
2023-03-05T07:25:13.713Z,1007.62
2023-03-05T07:25:52.648Z,1007.60
2023-03-05T07:26:52.621Z,1007.57
2023-03-05T07:27:52.518Z,1007.60
2023-03-05T07:28:52.447Z,1007.66
2023-03-05T07:29:52.386Z,1007.66
2023-03-05T07:31:13.322Z,1007.69
2023-03-05T07:31:52.268Z,1007.59
2023-03-05T07:32:52.186Z,1007.69
2023-03-05T07:33:52.101Z,1007.71
2023-03-05T07:34:52.027Z,1007.65
2023-03-05T07:35:52.039Z,1007.68
2023-03-05T07:37:12.880Z,1007.69
2023-03-05T07:37:51.837Z,1007.59
2023-03-05T07:38:51.771Z,1007.70
2023-03-05T07:39:51.697Z,1007.71
2023-03-05T07:40:51.618Z,1007.64
2023-03-05T07:41:51.549Z,1007.65
2023-03-05T07:43:12.463Z,1007.69
2023-03-05T07:43:51.416Z,1007.70
2023-03-05T07:44:51.337Z,1007.68
2023-03-05T07:45:51.289Z,1007.61
2023-03-05T07:46:51.196Z,1007.64
2023-03-05T07:47:52.619Z,1007.69
2023-03-05T07:49:12.034Z,1007.69
2023-03-05T07:49:50.991Z,1007.65
2023-03-05T07:50:50.937Z,1007.66
2023-03-05T07:51:50.913Z,1007.70
2023-03-05T07:52:50.775Z,1007.73
2023-03-05T07:53:50.705Z,1007.65
2023-03-05T07:55:11.632Z,1007.73
2023-03-05T07:55:50.576Z,1007.74
2023-03-05T07:56:50.508Z,1007.71
2023-03-05T07:57:50.441Z,1007.66
2023-03-05T07:58:50.367Z,1007.73
2023-03-05T07:59:50.294Z,1007.70
2023-03-05T08:01:13.113Z,1007.59
2023-03-05T08:01:50.166Z,1007.77
2023-03-05T08:02:50.118Z,1007.71
2023-03-05T08:03:50.057Z,1007.66
2023-03-05T08:04:49.950Z,1007.68
2023-03-05T08:05:49.889Z,1007.71
2023-03-05T08:07:10.792Z,1007.69
2023-03-05T08:07:49.744Z,1007.72
2023-03-05T08:08:49.674Z,1007.64
2023-03-05T08:09:49.613Z,1007.64
2023-03-05T08:10:49.538Z,1007.65
2023-03-05T08:11:49.485Z,1007.59
2023-03-05T08:13:10.390Z,1007.62
2023-03-05T08:13:49.350Z,1007.62
2023-03-05T08:14:49.283Z,1007.68
2023-03-05T08:15:49.236Z,1007.69
2023-03-05T08:16:49.126Z,1007.65
2023-03-05T08:17:49.060Z,1007.65
2023-03-05T08:19:09.970Z,1007.65
2023-03-05T08:19:48.927Z,1007.57
2023-03-05T08:20:48.861Z,1007.66
2023-03-05T08:21:48.784Z,1007.51
2023-03-05T08:22:48.709Z,1007.53
2023-03-05T08:23:48.645Z,1007.58
2023-03-05T08:25:09.562Z,1007.61
2023-03-05T08:25:48.510Z,1007.60
2023-03-05T08:26:48.447Z,1007.57
2023-03-05T08:27:48.396Z,1007.68
2023-03-05T08:28:48.349Z,1007.63
2023-03-05T08:29:48.244Z,1007.72
2023-03-05T08:31:09.257Z,1007.58
2023-03-05T08:31:48.110Z,1007.66
2023-03-05T08:32:48.036Z,1007.72
2023-03-05T08:33:47.985Z,1007.53
2023-03-05T08:34:47.917Z,1007.58
2023-03-05T08:35:47.875Z,1007.56
2023-03-05T08:37:08.767Z,1007.50
2023-03-05T08:37:47.717Z,1007.50
2023-03-05T08:38:47.651Z,1007.47
2023-03-05T08:39:47.579Z,1007.40
2023-03-05T08:40:47.508Z,1007.46
2023-03-05T08:41:47.462Z,1007.39
2023-03-05T08:43:08.367Z,1007.41
2023-03-05T08:43:47.324Z,1007.42
2023-03-05T08:44:47.280Z,1007.39
2023-03-05T08:45:47.185Z,1007.34
2023-03-05T08:46:47.183Z,1007.32
2023-03-05T08:47:47.060Z,1007.32
2023-03-05T08:49:07.993Z,1007.39
2023-03-05T08:49:46.920Z,1007.37
2023-03-05T08:50:46.855Z,1007.24
2023-03-05T08:51:46.793Z,1007.27
2023-03-05T08:52:46.729Z,1007.35
2023-03-05T08:53:46.659Z,1007.35
2023-03-05T08:55:07.579Z,1007.23
2023-03-05T08:55:46.553Z,1007.29
2023-03-05T08:56:46.464Z,1007.21
2023-03-05T08:57:46.402Z,1007.28
2023-03-05T08:58:46.346Z,1007.27
2023-03-05T08:59:46.264Z,1007.30
2023-03-05T09:01:07.196Z,1007.31
2023-03-05T09:01:46.177Z,1007.32
2023-03-05T09:02:46.118Z,1007.34
2023-03-05T09:03:46.007Z,1007.46
2023-03-05T09:04:45.937Z,1007.32
2023-03-05T09:05:45.865Z,1007.30
2023-03-05T09:07:06.794Z,1007.28
2023-03-05T09:07:45.746Z,1007.24
2023-03-05T09:08:45.682Z,1007.22
2023-03-05T09:09:45.650Z,1007.15
2023-03-05T09:10:45.543Z,1007.17
2023-03-05T09:11:45.485Z,1007.22
2023-03-05T09:13:06.418Z,1007.12
2023-03-05T09:13:45.362Z,1007.09
2023-03-05T09:14:45.290Z,1007.13
2023-03-05T09:15:45.227Z,1007.13
2023-03-05T09:16:45.209Z,1007.14
2023-03-05T09:17:45.128Z,1007.19
2023-03-05T09:19:06.023Z,1007.16
2023-03-05T09:19:44.968Z,1007.13
2023-03-05T09:20:44.904Z,1007.09
2023-03-05T09:21:44.849Z,1007.09
2023-03-05T09:22:44.778Z,1007.04
2023-03-05T09:23:44.703Z,1007.08
2023-03-05T09:25:05.644Z,1007.03
2023-03-05T09:25:44.579Z,1007.11
2023-03-05T09:26:44.563Z,1007.04
2023-03-05T09:27:44.453Z,1007.02
2023-03-05T09:28:44.388Z,1007.00
2023-03-05T09:29:44.328Z,1006.95
2023-03-05T09:31:05.224Z,1007.00
2023-03-05T09:31:44.282Z,1007.00
2023-03-05T09:32:44.150Z,1006.98
2023-03-05T09:33:44.046Z,1006.98
2023-03-05T09:34:43.982Z,1006.91
2023-03-05T09:35:43.952Z,1007.00
2023-03-05T09:37:04.828Z,1006.99
2023-03-05T09:37:43.783Z,1006.97
2023-03-05T09:38:43.711Z,1006.92
2023-03-05T09:39:43.645Z,1006.93
2023-03-05T09:40:43.574Z,1006.96
2023-03-05T09:41:43.519Z,1006.90
2023-03-05T09:43:04.430Z,1006.90
2023-03-05T09:43:43.376Z,1006.87
2023-03-05T09:44:43.356Z,1006.89
2023-03-05T09:45:43.256Z,1006.91
2023-03-05T09:46:43.179Z,1006.89
2023-03-05T09:47:43.112Z,1006.86
2023-03-05T09:49:04.033Z,1006.90
2023-03-05T09:49:42.973Z,1006.86
2023-03-05T09:50:42.904Z,1006.88
2023-03-05T09:51:42.838Z,1006.87
2023-03-05T09:52:42.772Z,1006.94
2023-03-05T09:53:42.715Z,1006.90
2023-03-05T09:55:03.625Z,1006.89
2023-03-05T09:55:42.574Z,1006.87
2023-03-05T09:56:42.516Z,1006.85
2023-03-05T09:57:42.440Z,1006.89
2023-03-05T09:58:42.370Z,1006.84
2023-03-05T09:59:42.292Z,1006.88
2023-03-05T10:01:03.215Z,1006.87
2023-03-05T10:01:42.175Z,1006.86
2023-03-05T10:02:42.167Z,1006.71
2023-03-05T10:03:42.083Z,1006.81
2023-03-05T10:04:41.966Z,1006.83
2023-03-05T10:05:41.891Z,1006.84
2023-03-05T10:07:02.813Z,1006.78
2023-03-05T10:07:41.756Z,1006.77
2023-03-05T10:08:41.689Z,1006.79
2023-03-05T10:09:41.630Z,1006.67
2023-03-05T10:10:41.556Z,1006.73
2023-03-05T10:11:41.501Z,1006.78
2023-03-05T10:13:02.413Z,1006.77
2023-03-05T10:13:41.375Z,1006.77
2023-03-05T10:14:41.303Z,1006.71
2023-03-05T10:15:41.250Z,1006.77
2023-03-05T10:16:41.157Z,1006.75
2023-03-05T10:17:41.074Z,1006.81
2023-03-05T10:19:02.001Z,1006.72
2023-03-05T10:19:40.935Z,1006.78
2023-03-05T10:20:40.916Z,1006.74
2023-03-05T10:21:40.845Z,1006.77
2023-03-05T10:22:40.744Z,1006.77
2023-03-05T10:23:40.676Z,1006.77
2023-03-05T10:25:01.594Z,1006.79
2023-03-05T10:25:40.522Z,1006.75
2023-03-05T10:26:40.458Z,1006.67
2023-03-05T10:27:40.390Z,1006.62
2023-03-05T10:28:40.336Z,1006.65
2023-03-05T10:29:40.260Z,1006.73
2023-03-05T10:31:01.181Z,1006.63
2023-03-05T10:31:40.181Z,1006.70
2023-03-05T10:32:40.125Z,1006.67
2023-03-05T10:33:39.984Z,1006.65
2023-03-05T10:34:39.925Z,1006.66
2023-03-05T10:35:39.887Z,1006.62
2023-03-05T10:37:00.778Z,1006.66
2023-03-05T10:37:39.706Z,1006.69
2023-03-05T10:38:39.656Z,1006.68
2023-03-05T10:39:39.573Z,1006.64
2023-03-05T10:40:39.508Z,1006.61
2023-03-05T10:41:39.435Z,1006.62
2023-03-05T10:43:00.369Z,1006.57
2023-03-05T10:43:39.299Z,1006.55
2023-03-05T10:44:39.263Z,1006.57
2023-03-05T10:45:39.222Z,1006.55
2023-03-05T10:46:39.102Z,1006.57
2023-03-05T10:47:39.025Z,1006.55
2023-03-05T10:48:59.947Z,1006.55
2023-03-05T10:49:38.925Z,1006.55
2023-03-05T10:50:38.819Z,1006.53
2023-03-05T10:51:38.747Z,1006.41
2023-03-05T10:52:38.684Z,1006.46
2023-03-05T10:53:38.633Z,1006.47
2023-03-05T10:54:59.537Z,1006.47
2023-03-05T10:55:38.511Z,1006.49
2023-03-05T10:56:38.410Z,1006.46
2023-03-05T10:57:38.374Z,1006.48
2023-03-05T10:58:38.287Z,1006.41
2023-03-05T10:59:38.200Z,1006.53
2023-03-05T11:00:59.159Z,1006.49
2023-03-05T11:01:38.104Z,1006.51
2023-03-05T11:02:38.056Z,1006.49
2023-03-05T11:03:37.929Z,1006.51
2023-03-05T11:04:37.885Z,1006.42
2023-03-05T11:05:37.797Z,1006.47
2023-03-05T11:06:58.715Z,1006.44
2023-03-05T11:07:37.700Z,1006.46
2023-03-05T11:08:37.593Z,1006.44
2023-03-05T11:09:37.520Z,1006.46
2023-03-05T11:10:37.456Z,1006.39
2023-03-05T11:11:37.391Z,1006.42
2023-03-05T11:12:58.311Z,1006.43
2023-03-05T11:13:37.254Z,1006.38
2023-03-05T11:14:37.184Z,1006.40
2023-03-05T11:15:37.134Z,1006.44
2023-03-05T11:16:37.054Z,1006.41
2023-03-05T11:17:37.038Z,1006.36
2023-03-05T11:18:57.952Z,1006.44
2023-03-05T11:19:36.850Z,1006.46
2023-03-05T11:20:36.791Z,1006.39
2023-03-05T11:21:36.709Z,1006.36
2023-03-05T11:22:36.660Z,1006.35
2023-03-05T11:23:36.571Z,1006.34
2023-03-05T11:24:57.493Z,1006.34
2023-03-05T11:25:36.430Z,1006.42
2023-03-05T11:26:36.381Z,1006.41
2023-03-05T11:27:36.304Z,1006.39
2023-03-05T11:28:36.332Z,1006.39
2023-03-05T11:29:36.172Z,1006.36
2023-03-05T11:30:57.118Z,1006.36
2023-03-05T11:31:36.056Z,1006.35
2023-03-05T11:32:35.999Z,1006.30
2023-03-05T11:33:35.915Z,1006.33
2023-03-05T11:34:35.837Z,1006.32
2023-03-05T11:35:35.813Z,1006.39
2023-03-05T11:36:56.672Z,1006.32
2023-03-05T11:37:35.635Z,1006.38
2023-03-05T11:38:35.555Z,1006.34
2023-03-05T11:39:35.498Z,1006.30
2023-03-05T11:40:35.421Z,1006.31
2023-03-05T11:41:35.367Z,1006.29
2023-03-05T11:42:56.270Z,1006.31
2023-03-05T11:43:35.228Z,1006.25
2023-03-05T11:44:35.149Z,1006.24
2023-03-05T11:45:35.080Z,1006.24
2023-03-05T11:46:35.083Z,1006.18
2023-03-05T11:47:34.946Z,1006.23
2023-03-05T11:48:55.855Z,1006.26
2023-03-05T11:49:35.351Z,1006.32
2023-03-05T11:50:34.745Z,1006.27
2023-03-05T11:51:34.659Z,1006.24
2023-03-05T11:52:34.608Z,1006.22
2023-03-05T11:53:34.528Z,1006.20
2023-03-05T11:54:55.454Z,1006.16
2023-03-05T11:55:34.396Z,1006.13
2023-03-05T11:56:34.324Z,1006.20
2023-03-05T11:57:34.268Z,1006.17
2023-03-05T11:58:34.232Z,1006.14
2023-03-05T11:59:34.219Z,1006.12
2023-03-05T12:00:55.086Z,1006.12
2023-03-05T12:01:34.028Z,1006.11
2023-03-05T12:02:33.947Z,1006.07
2023-03-05T12:03:33.966Z,1006.17
2023-03-05T12:04:33.793Z,1006.07